Terminal Aerodrome Forecast
Issued by NWS

Home | Current Version | Previous Version | Text Only | Print | Product List | Glossary On
Versions: 1 2 3 4 5 6 7 8 9 10 11 12 13
000
FTAK31 PANC 260524
TAFAGK
TAF
PAGK 260524Z 2606/2706 16012G20KT P6SM FEW070
     FM261000 16010KT P6SM FEW070
     FM262100 17012G20KT P6SM SCT070 BKN200=

USA.gov is the U.S. government's official web portal to all federal, state and local government web resources and services.